Time;durP1;ratioP1;P1;durP2;ratioP2;P2;SDS_P1;SDS_P2;PMS_P1;PMS_P2;Temp;Humidity;BMP_temperature;BMP_pressure;BME280_temperature;BME280_humidity;BME280_pressure;Samples;Min_cycle;Max_cycle;Signal;HPM_P1;HPM_P2
2022/11/09 00:01:57;;;;;;;28.73;8.73;;;;;;;;;;6301125;22;20019;-57
2022/11/09 00:04:24;;;;;;;43.50;9.02;;;;;;;;;;6301768;22;20568;-55
2022/11/09 00:06:52;;;;;;;30.83;8.15;;;;;;;;;;6300409;22;20019;-57
2022/11/09 00:09:25;;;;;;;32.25;8.10;;;;;;;;;;6296451;22;20031;-54
2022/11/09 00:11:53;;;;;;;30.30;8.15;;;;;;;;;;6300387;22;20384;-58
2022/11/09 00:14:27;;;;;;;37.80;8.40;;;;;;;;;;6300916;22;20073;-58
2022/11/09 00:16:55;;;;;;;33.65;9.13;;;;;;;;;;6299585;22;20015;-50
2022/11/09 00:19:23;;;;;;;34.28;8.38;;;;;;;;;;6300620;22;20069;-49
2022/11/09 00:22:03;;;;;;;38.40;8.23;;;;;;;;;;6300192;22;20026;-50
2022/11/09 00:24:30;;;;;;;28.63;7.80;;;;;;;;;;6272300;22;20057;-51
2022/11/09 00:27:04;;;;;;;31.33;8.40;;;;;;;;;;6299488;22;20464;-49
2022/11/09 00:29:31;;;;;;;31.30;7.28;;;;;;;;;;6300584;22;20618;-51
2022/11/09 00:31:58;;;;;;;33.83;8.32;;;;;;;;;;6299109;22;20403;-51
2022/11/09 00:34:32;;;;;;;38.63;8.82;;;;;;;;;;6300692;22;20020;-64
2022/11/09 00:37:00;;;;;;;28.83;7.55;;;;;;;;;;6301166;22;20026;-58
2022/11/09 00:39:27;;;;;;;27.20;8.00;;;;;;;;;;6300943;22;20416;-50
2022/11/09 00:42:00;;;;;;;33.15;8.60;;;;;;;;;;6298144;22;20049;-53
2022/11/09 00:44:28;;;;;;;29.92;7.85;;;;;;;;;;6299959;22;20062;-50
2022/11/09 00:47:01;;;;;;;29.95;9.40;;;;;;;;;;6299519;22;20024;-51
2022/11/09 00:49:28;;;;;;;27.23;8.30;;;;;;;;;;6299853;22;20493;-50
2022/11/09 00:51:56;;;;;;;34.40;8.32;;;;;;;;;;6300156;22;20102;-50
2022/11/09 00:54:29;;;;;;;40.55;8.57;;;;;;;;;;6300970;22;20026;-59
2022/11/09 00:56:56;;;;;;;38.05;8.50;;;;;;;;;;6299716;22;20023;-58
2022/11/09 00:59:30;;;;;;;36.33;9.02;;;;;;;;;;6299693;22;20098;-58
2022/11/09 01:01:57;;;;;;;28.63;9.30;;;;;;;;;;6300611;22;20062;-58
2022/11/09 01:04:25;;;;;;;36.90;8.88;;;;;;;;;;6300631;22;20563;-59
2022/11/09 01:06:58;;;;;;;28.15;9.02;;;;;;;;;;6298546;22;20341;-59
2022/11/09 01:09:26;;;;;;;31.85;9.02;;;;;;;;;;6301640;22;20028;-59
2022/11/09 01:11:59;;;;;;;34.55;8.57;;;;;;;;;;6300519;22;20025;-59
2022/11/09 01:14:26;;;;;;;34.38;8.55;;;;;;;;;;6300472;22;20490;-64
2022/11/09 01:16:54;;;;;;;28.20;9.13;;;;;;;;;;6300135;22;20094;-64
2022/11/09 01:19:27;;;;;;;31.83;8.55;;;;;;;;;;6298332;22;20019;-65
2022/11/09 01:22:07;;;;;;;33.50;8.85;;;;;;;;;;6296682;22;20364;-65
2022/11/09 01:24:41;;;;;;;31.75;8.82;;;;;;;;;;6298763;22;20098;-64
2022/11/09 01:27:09;;;;;;;35.15;7.65;;;;;;;;;;6300879;22;20584;-63
2022/11/09 01:29:36;;;;;;;34.45;8.48;;;;;;;;;;6303003;22;20027;-64
2022/11/09 01:32:16;;;;;;;34.42;7.85;;;;;;;;;;6302555;22;20360;-58
2022/11/09 01:34:43;;;;;;;26.75;7.13;;;;;;;;;;6302105;22;20542;-58
2022/11/09 01:37:24;;;;;;;34.10;7.88;;;;;;;;;;6302905;22;20094;-64
2022/11/09 01:39:51;;;;;;;37.30;8.88;;;;;;;;;;6302863;22;20420;-64
2022/11/09 01:42:25;;;;;;;31.58;7.63;;;;;;;;;;6301996;22;20051;-63
2022/11/09 01:45:11;;;;;;;33.15;8.05;;;;;;;;;;6302034;22;20054;-64
2022/11/09 01:47:47;;;;;;;37.45;8.30;;;;;;;;;;6301258;22;20027;-64
2022/11/09 01:50:16;;;;;;;25.48;7.25;;;;;;;;;;6303449;22;20037;-60
2022/11/09 01:52:45;;;;;;;23.58;7.85;;;;;;;;;;6301334;22;20098;-59
2022/11/09 01:55:20;;;;;;;37.67;7.95;;;;;;;;;;6303197;22;20019;-59
2022/11/09 01:57:51;;;;;;;22.40;7.43;;;;;;;;;;6303147;22;20019;-59
2022/11/09 02:00:25;;;;;;;;;;;;;;;;;;6303781;22;20122;-59
2022/11/09 02:03:02;;;;;;;32.78;7.60;;;;;;;;;;6300821;22;19993;-59
2022/11/09 02:05:37;;;;;;;32.30;8.18;;;;;;;;;;6302260;22;20360;-59
2022/11/09 02:08:05;;;;;;;32.53;8.02;;;;;;;;;;6301817;22;20016;-59
2022/11/09 02:10:43;;;;;;;24.83;8.73;;;;;;;;;;6303599;22;20015;-53
2022/11/09 02:13:12;;;;;;;28.17;8.30;;;;;;;;;;6302238;22;20098;-60
2022/11/09 02:15:47;;;;;;;33.15;8.25;;;;;;;;;;6300769;22;20023;-60
2022/11/09 02:18:14;;;;;;;35.83;8.00;;;;;;;;;;6302927;22;20016;-60
2022/11/09 02:21:03;;;;;;;28.85;8.75;;;;;;;;;;6302247;22;20360;-60
2022/11/09 02:23:37;;;;;;;34.58;9.10;;;;;;;;;;6271206;22;20437;-60
2022/11/09 02:26:14;;;;;;;29.17;9.15;;;;;;;;;;6270920;22;20369;-60
2022/11/09 02:28:41;;;;;;;35.25;9.10;;;;;;;;;;6270847;22;20023;-59
2022/11/09 02:31:10;;;;;;;34.75;8.10;;;;;;;;;;6272365;22;20086;-58
2022/11/09 02:33:53;;;;;;;25.40;8.63;;;;;;;;;;6269626;22;20031;-65
2022/11/09 02:36:21;;;;;;;33.63;8.65;;;;;;;;;;6270314;22;20110;-65
2022/11/09 02:38:56;;;;;;;30.17;8.63;;;;;;;;;;6271275;22;20019;-65
2022/11/09 02:41:23;;;;;;;;;;;;;;;;;;6270804;22;20051;-65
2022/11/09 02:43:57;;;;;;;27.48;8.60;;;;;;;;;;6270383;22;19986;-65
2022/11/09 02:46:25;;;;;;;29.45;8.48;;;;;;;;;;6270732;22;20023;-65
2022/11/09 02:48:59;;;;;;;29.75;8.95;;;;;;;;;;6269668;22;20108;-62
2022/11/09 02:51:26;;;;;;;35.08;8.98;;;;;;;;;;6270931;22;20015;-60
2022/11/09 02:53:53;;;;;;;20.55;8.23;;;;;;;;;;6269997;22;20030;-60
2022/11/09 02:56:26;;;;;;;41.63;9.07;;;;;;;;;;6270682;22;20095;-60
2022/11/09 02:58:54;;;;;;;20.58;9.85;;;;;;;;;;6269920;22;20051;-60
2022/11/09 03:01:27;;;;;;;23.85;8.85;;;;;;;;;;6269938;22;20016;-60
2022/11/09 03:03:55;;;;;;;39.15;10.23;;;;;;;;;;6269699;22;20019;-60
2022/11/09 03:06:33;;;;;;;26.65;10.38;;;;;;;;;;6269213;22;20016;-60
2022/11/09 03:09:08;;;;;;;33.28;11.18;;;;;;;;;;6269935;22;20386;-54
2022/11/09 03:11:36;;;;;;;27.38;10.35;;;;;;;;;;6270357;22;20476;-52
2022/11/09 03:14:03;;;;;;;32.22;11.07;;;;;;;;;;6269005;22;20114;-52
2022/11/09 03:16:38;;;;;;;33.38;10.85;;;;;;;;;;6271131;22;20020;-51
2022/11/09 03:19:05;;;;;;;23.58;9.40;;;;;;;;;;6269656;22;20047;-54
2022/11/09 03:21:46;;;;;;;31.55;9.75;;;;;;;;;;6279507;22;20015;-51
2022/11/09 03:24:13;;;;;;;33.78;9.88;;;;;;;;;;6299741;22;20057;-52
2022/11/09 03:26:47;;;;;;;36.85;11.10;;;;;;;;;;6301180;22;20019;-60
2022/11/09 03:29:14;;;;;;;29.33;10.60;;;;;;;;;;6301694;22;20027;-60
2022/11/09 03:31:42;;;;;;;31.25;10.07;;;;;;;;;;6299179;22;20098;-59
2022/11/09 03:34:15;;;;;;;35.92;10.18;;;;;;;;;;6299917;22;20330;-60
2022/11/09 03:36:42;;;;;;;39.22;10.57;;;;;;;;;;6300580;22;20062;-60
2022/11/09 03:39:16;;;;;;;36.15;10.70;;;;;;;;;;6301941;22;20030;-60
2022/11/09 03:41:44;;;;;;;39.50;10.25;;;;;;;;;;6300543;22;20062;-59
2022/11/09 03:44:11;;;;;;;29.02;9.65;;;;;;;;;;6299907;22;20357;-60
2022/11/09 03:46:44;;;;;;;33.83;10.05;;;;;;;;;;6299526;22;20094;-59
2022/11/09 03:49:12;;;;;;;35.00;10.43;;;;;;;;;;6274572;22;20095;-60
2022/11/09 03:51:39;;;;;;;31.30;10.27;;;;;;;;;;6301174;22;20054;-60
2022/11/09 03:54:12;;;;;;;36.10;10.40;;;;;;;;;;6300304;22;20015;-59
2022/11/09 03:56:40;;;;;;;30.77;10.13;;;;;;;;;;6300271;22;20023;-60
2022/11/09 03:59:14;;;;;;;30.73;10.52;;;;;;;;;;6301771;22;20053;-60
2022/11/09 04:01:41;;;;;;;33.60;10.00;;;;;;;;;;6300453;22;20030;-60
2022/11/09 04:04:08;;;;;;;28.80;10.88;;;;;;;;;;6300824;22;20038;-61
2022/11/09 04:06:43;;;;;;;36.60;10.02;;;;;;;;;;6299934;22;20465;-53
2022/11/09 04:09:10;;;;;;;36.78;10.65;;;;;;;;;;6302137;22;20026;-55
2022/11/09 04:11:37;;;;;;;30.38;10.38;;;;;;;;;;6302079;22;20382;-52
2022/11/09 04:14:10;;;;;;;35.30;9.88;;;;;;;;;;6300422;22;20022;-55
2022/11/09 04:16:38;;;;;;;34.38;10.57;;;;;;;;;;6300400;22;20068;-50
2022/11/09 04:19:05;;;;;;;30.58;10.52;;;;;;;;;;6301749;22;20026;-50
2022/11/09 04:21:45;;;;;;;27.50;10.23;;;;;;;;;;6300990;22;20094;-54
2022/11/09 04:24:19;;;;;;;28.98;10.02;;;;;;;;;;6301322;22;20023;-53
2022/11/09 04:26:52;;;;;;;25.10;9.50;;;;;;;;;;6300135;22;20501;-62
2022/11/09 04:29:20;;;;;;;26.58;10.07;;;;;;;;;;6300935;22;20428;-62
2022/11/09 04:31:50;;;;;;;27.95;10.32;;;;;;;;;;6300313;22;20029;-62
2022/11/09 04:34:25;;;;;;;37.70;10.50;;;;;;;;;;6299362;22;20100;-62
2022/11/09 04:36:52;;;;;;;31.05;10.60;;;;;;;;;;6300701;22;20535;-62
2022/11/09 04:39:19;;;;;;;35.75;10.30;;;;;;;;;;6300940;22;20030;-62
2022/11/09 04:41:52;;;;;;;36.65;11.02;;;;;;;;;;6300649;22;20041;-54
2022/11/09 04:44:19;;;;;;;40.85;11.45;;;;;;;;;;6301055;22;20527;-58
2022/11/09 04:46:54;;;;;;;28.90;10.38;;;;;;;;;;6301318;22;20599;-62
2022/11/09 04:49:21;;;;;;;29.25;11.00;;;;;;;;;;6300637;22;20359;-62
2022/11/09 04:51:48;;;;;;;36.05;11.15;;;;;;;;;;6302000;22;20094;-63
2022/11/09 04:54:21;;;;;;;33.10;12.02;;;;;;;;;;6300797;22;20399;-62
2022/11/09 04:56:48;;;;;;;27.23;11.05;;;;;;;;;;6298674;22;20027;-62
2022/11/09 04:59:22;;;;;;;30.08;11.70;;;;;;;;;;6300875;22;20094;-62
2022/11/09 05:01:49;;;;;;;30.58;10.85;;;;;;;;;;6302220;22;20065;-59
2022/11/09 05:04:24;;;;;;;29.95;11.45;;;;;;;;;;6303965;22;20401;-61
2022/11/09 05:06:51;;;;;;;29.13;11.45;;;;;;;;;;6302168;22;20385;-61
2022/11/09 05:09:18;;;;;;;39.83;11.82;;;;;;;;;;6303265;22;20045;-60
2022/11/09 05:11:52;;;;;;;35.58;11.60;;;;;;;;;;6302528;22;20098;-61
2022/11/09 05:14:19;;;;;;;43.15;12.13;;;;;;;;;;6302710;22;20034;-61
2022/11/09 05:16:54;;;;;;;33.78;12.57;;;;;;;;;;6278256;22;20058;-61
2022/11/09 05:19:21;;;;;;;35.08;12.55;;;;;;;;;;6301706;22;20041;-60
2022/11/09 05:21:48;;;;;;;28.70;11.18;;;;;;;;;;6301133;22;20074;-59
2022/11/09 05:24:28;;;;;;;32.75;11.63;;;;;;;;;;6302581;22;20023;-60
2022/11/09 05:26:56;;;;;;;29.88;11.70;;;;;;;;;;6299866;22;20114;-59
2022/11/09 05:29:29;;;;;;;36.22;11.48;;;;;;;;;;6301229;22;20470;-60
2022/11/09 05:31:56;;;;;;;29.02;10.75;;;;;;;;;;6303200;22;20411;-59
2022/11/09 05:34:30;;;;;;;32.05;10.75;;;;;;;;;;6302517;22;20022;-59
2022/11/09 05:36:58;;;;;;;33.22;11.07;;;;;;;;;;6299312;22;20030;-59
2022/11/09 05:39:29;;;;;;;38.45;11.90;;;;;;;;;;6304292;22;20023;-51
2022/11/09 05:42:03;;;;;;;32.33;10.88;;;;;;;;;;6302984;22;20065;-62
2022/11/09 05:44:30;;;;;;;30.95;9.82;;;;;;;;;;6300800;22;20019;-59
2022/11/09 05:46:58;;;;;;;32.88;9.05;;;;;;;;;;6302971;22;20023;-59
2022/11/09 05:49:31;;;;;;;33.40;9.15;;;;;;;;;;6303398;22;20348;-59
2022/11/09 05:51:59;;;;;;;35.63;9.05;;;;;;;;;;6302342;22;20098;-58
2022/11/09 05:54:32;;;;;;;40.90;9.65;;;;;;;;;;6301105;22;20534;-58
2022/11/09 05:57:00;;;;;;;31.73;7.85;;;;;;;;;;6298510;22;20403;-58
2022/11/09 05:59:34;;;;;;;33.92;9.00;;;;;;;;;;6302563;22;20041;-58
2022/11/09 06:02:02;;;;;;;37.85;8.52;;;;;;;;;;6300396;22;20019;-52
2022/11/09 06:04:29;;;;;;;29.52;8.25;;;;;;;;;;6300723;22;20531;-55
2022/11/09 06:07:02;;;;;;;31.40;7.88;;;;;;;;;;6303477;22;20026;-53
2022/11/09 06:09:30;;;;;;;37.47;7.50;;;;;;;;;;6303405;22;20022;-53
2022/11/09 06:12:04;;;;;;;29.40;7.97;;;;;;;;;;6302720;22;20015;-53
2022/11/09 06:14:31;;;;;;;36.22;7.00;;;;;;;;;;6302772;22;20093;-53
2022/11/09 06:16:58;;;;;;;30.70;7.22;;;;;;;;;;6276205;22;20025;-59
2022/11/09 06:19:32;;;;;;;38.65;7.38;;;;;;;;;;6301388;22;20531;-60
2022/11/09 06:21:59;;;;;;;27.88;6.68;;;;;;;;;;6302509;22;20464;-51
2022/11/09 06:24:40;;;;;;;35.88;6.68;;;;;;;;;;6301828;22;20122;-52
2022/11/09 06:27:07;;;;;;;30.80;7.13;;;;;;;;;;6302402;22;20019;-52
2022/11/09 06:29:42;;;;;;;35.83;6.45;;;;;;;;;;6302034;22;20027;-52
2022/11/09 06:32:09;;;;;;;28.52;5.47;;;;;;;;;;6302059;22;20494;-55
2022/11/09 06:34:36;;;;;;;27.15;6.32;;;;;;;;;;6301039;22;20103;-52
2022/11/09 06:37:10;;;;;;;32.80;6.10;;;;;;;;;;6302955;22;20097;-65
2022/11/09 06:39:37;;;;;;;27.23;6.57;;;;;;;;;;6302196;22;20023;-62
2022/11/09 06:42:10;;;;;;;30.95;6.10;;;;;;;;;;6300896;22;20019;-62
2022/11/09 06:44:38;;;;;;;36.70;7.15;;;;;;;;;;6302116;22;20026;-62
2022/11/09 06:47:11;;;;;;;32.35;7.15;;;;;;;;;;6302506;22;20095;-62
2022/11/09 06:49:39;;;;;;;33.33;7.05;;;;;;;;;;6300832;22;20046;-62
2022/11/09 06:52:06;;;;;;;31.63;7.32;;;;;;;;;;6302243;22;20327;-62
2022/11/09 06:54:39;;;;;;;37.72;6.97;;;;;;;;;;6301325;22;20019;-62
2022/11/09 06:57:07;;;;;;;27.15;6.20;;;;;;;;;;6301414;22;20348;-60
2022/11/09 06:59:40;;;;;;;38.00;6.35;;;;;;;;;;6302906;22;20094;-63
2022/11/09 07:02:09;;;;;;;34.80;5.97;;;;;;;;;;6274229;22;20126;-63
2022/11/09 07:04:36;;;;;;;35.20;5.72;;;;;;;;;;6301670;22;20106;-62
2022/11/09 07:07:11;;;;;;;30.00;5.85;;;;;;;;;;6301237;22;20088;-62
2022/11/09 07:09:38;;;;;;;27.52;5.63;;;;;;;;;;6301660;22;20027;-62
2022/11/09 07:12:05;;;;;;;26.55;4.88;;;;;;;;;;6301703;22;20019;-63
2022/11/09 07:14:38;;;;;;;29.30;5.35;;;;;;;;;;6300515;22;20173;-60
2022/11/09 07:17:05;;;;;;;29.58;6.13;;;;;;;;;;6302382;22;20033;-53
2022/11/09 07:19:39;;;;;;;27.15;5.32;;;;;;;;;;6301928;22;20019;-61
2022/11/09 07:22:13;;;;;;;33.42;5.65;;;;;;;;;;6299702;22;20022;-60
2022/11/09 07:24:54;;;;;;;33.05;6.10;;;;;;;;;;6300575;22;20025;-61
2022/11/09 07:27:22;;;;;;;32.55;5.95;;;;;;;;;;6301463;22;20094;-61
2022/11/09 07:29:55;;;;;;;38.50;5.57;;;;;;;;;;6276240;22;20025;-61
2022/11/09 07:32:22;;;;;;;28.17;5.18;;;;;;;;;;6301670;22;20464;-60
2022/11/09 07:35:17;;;;;;;37.20;5.53;;;;;;;;;;6301017;22;20025;-60
2022/11/09 07:37:44;;;;;;;34.40;5.18;;;;;;;;;;6300937;22;20023;-62
2022/11/09 07:40:17;;;;;;;30.30;5.18;;;;;;;;;;6302516;22;20022;-62
2022/11/09 07:42:45;;;;;;;27.48;5.70;;;;;;;;;;6299261;22;20098;-63
2022/11/09 07:45:12;;;;;;;44.75;6.28;;;;;;;;;;6302924;22;20019;-63
2022/11/09 07:47:45;;;;;;;31.20;5.30;;;;;;;;;;6301966;22;20019;-62
2022/11/09 07:50:13;;;;;;;29.00;5.43;;;;;;;;;;6301497;22;20026;-63
2022/11/09 07:52:47;;;;;;;33.97;5.60;;;;;;;;;;6300492;22;20034;-60
2022/11/09 07:55:14;;;;;;;45.33;6.82;;;;;;;;;;6301575;22;20024;-63
2022/11/09 07:57:43;;;;;;;28.30;5.05;;;;;;;;;;6300938;22;20489;-60
2022/11/09 08:00:16;;;;;;;33.40;5.97;;;;;;;;;;6302079;22;20042;-60
2022/11/09 08:02:49;;;;;;;27.27;4.97;;;;;;;;;;6300803;22;20109;-60
2022/11/09 08:05:24;;;;;;;34.17;5.30;;;;;;;;;;6301424;22;20023;-61
2022/11/09 08:07:55;;;;;;;28.30;5.18;;;;;;;;;;6301215;22;20382;-61
2022/11/09 08:10:22;;;;;;;26.92;4.35;;;;;;;;;;6302227;22;20470;-61
2022/11/09 08:12:58;;;;;;;30.08;5.65;;;;;;;;;;6301600;22;20348;-60
2022/11/09 08:15:25;;;;;;;31.73;5.38;;;;;;;;;;6301469;22;20025;-53
2022/11/09 08:18:04;;;;;;;32.35;5.18;;;;;;;;;;6302094;22;20099;-56
2022/11/09 08:20:31;;;;;;;25.42;5.00;;;;;;;;;;6301338;22;20031;-56
2022/11/09 08:23:12;;;;;;;37.63;4.90;;;;;;;;;;6300439;22;20027;-51
2022/11/09 08:25:40;;;;;;;39.00;5.63;;;;;;;;;;6302374;22;20023;-48
2022/11/09 08:28:16;;;;;;;28.30;5.57;;;;;;;;;;6302687;22;20049;-54
2022/11/09 08:30:44;;;;;;;33.58;4.88;;;;;;;;;;6300051;22;20110;-60
2022/11/09 08:33:18;;;;;;;40.10;5.68;;;;;;;;;;6271359;22;20025;-61
2022/11/09 08:35:46;;;;;;;32.63;4.90;;;;;;;;;;6301953;22;20110;-61
2022/11/09 08:38:20;;;;;;;26.40;5.30;;;;;;;;;;6300850;22;20046;-61
2022/11/09 08:40:47;;;;;;;;;;;;;;;;;;6302188;22;20023;-60
2022/11/09 08:43:14;;;;;;;26.98;5.70;;;;;;;;;;6300638;22;19915;-61
2022/11/09 08:45:48;;;;;;;33.22;4.55;;;;;;;;;;6301742;22;20041;-60
2022/11/09 08:48:16;;;;;;;27.75;5.25;;;;;;;;;;6302480;22;20045;-61
2022/11/09 08:50:59;;;;;;;35.35;5.97;;;;;;;;;;6301705;22;20056;-59
2022/11/09 08:53:27;;;;;;;34.97;5.00;;;;;;;;;;6301255;22;20058;-51
2022/11/09 08:56:00;;;;;;;30.92;5.47;;;;;;;;;;6301440;22;20023;-51
2022/11/09 08:58:35;;;;;;;29.80;5.72;;;;;;;;;;6302265;22;20019;-53
2022/11/09 09:01:05;;;;;;;30.83;4.80;;;;;;;;;;6301238;22;20478;-51
2022/11/09 09:03:38;;;;;;;24.52;4.32;;;;;;;;;;6300885;22;20023;-51
2022/11/09 09:06:12;;;;;;;34.42;5.15;;;;;;;;;;6301548;22;20498;-53
2022/11/09 09:08:39;;;;;;;30.17;5.40;;;;;;;;;;6300711;22;20657;-60
2022/11/09 09:11:06;;;;;;;36.53;6.00;;;;;;;;;;6274065;22;20112;-49
2022/11/09 09:13:40;;;;;;;39.25;6.05;;;;;;;;;;6300951;22;20019;-52
2022/11/09 09:16:10;;;;;;;24.13;5.20;;;;;;;;;;6302320;22;20030;-53
2022/11/09 09:18:44;;;;;;;27.83;4.35;;;;;;;;;;6300163;22;20051;-51
2022/11/09 09:21:12;;;;;;;34.15;4.38;;;;;;;;;;6301394;22;20102;-50
2022/11/09 09:23:39;;;;;;;33.13;4.60;;;;;;;;;;6300122;22;20107;-52
2022/11/09 09:26:19;;;;;;;27.73;4.85;;;;;;;;;;6275822;22;20094;-51
2022/11/09 09:28:46;;;;;;;30.65;5.20;;;;;;;;;;6301357;22;20452;-61
2022/11/09 09:31:21;;;;;;;32.15;4.90;;;;;;;;;;6299114;22;20033;-58
2022/11/09 09:33:48;;;;;;;26.95;4.35;;;;;;;;;;6300373;22;20022;-59
2022/11/09 09:36:21;;;;;;;29.20;5.60;;;;;;;;;;6301143;22;20559;-58
2022/11/09 09:38:54;;;;;;;30.33;4.93;;;;;;;;;;6299816;22;20025;-58
2022/11/09 09:41:34;;;;;;;34.70;4.97;;;;;;;;;;6301104;22;20030;-58
2022/11/09 09:44:23;;;;;;;29.35;4.70;;;;;;;;;;6299462;22;20065;-59
2022/11/09 09:47:11;;;;;;;23.70;4.30;;;;;;;;;;6299602;22;20029;-60
2022/11/09 09:49:49;;;;;;;31.85;5.65;;;;;;;;;;6302611;22;20019;-59
2022/11/09 09:52:26;;;;;;;34.42;5.93;;;;;;;;;;6301642;22;20416;-60
2022/11/09 09:55:18;;;;;;;27.63;5.13;;;;;;;;;;6302220;22;20055;-60
2022/11/09 09:57:48;;;;;;;29.15;4.93;;;;;;;;;;6303271;22;20019;-61
2022/11/09 10:00:25;;;;;;;30.60;4.85;;;;;;;;;;6301112;22;20065;-60
2022/11/09 10:02:53;;;;;;;35.13;4.93;;;;;;;;;;6302080;22;20015;-60
2022/11/09 10:05:27;;;;;;;31.33;4.45;;;;;;;;;;6303468;22;20024;-60
2022/11/09 10:08:10;;;;;;;30.67;5.00;;;;;;;;;;6301860;22;20016;-60
2022/11/09 10:10:45;;;;;;;26.50;4.60;;;;;;;;;;6303349;22;20019;-64
2022/11/09 10:13:37;;;;;;;26.48;4.72;;;;;;;;;;6301641;22;20093;-63
2022/11/09 10:16:04;;;;;;;35.20;4.70;;;;;;;;;;6301787;22;20027;-63
2022/11/09 10:18:47;;;;;;;30.35;5.00;;;;;;;;;;6275580;22;20015;-63
2022/11/09 10:21:29;;;;;;;24.13;3.78;;;;;;;;;;6303020;22;20103;-63
2022/11/09 10:24:12;;;;;;;32.28;5.28;;;;;;;;;;6300192;22;20356;-63
2022/11/09 10:26:45;;;;;;;31.85;5.63;;;;;;;;;;6303234;22;20550;-65
2022/11/09 10:29:22;;;;;;;29.20;4.63;;;;;;;;;;6302135;22;20019;-51
2022/11/09 10:32:02;;;;;;;33.10;4.63;;;;;;;;;;6302396;22;20473;-56
2022/11/09 10:34:40;;;;;;;25.27;5.13;;;;;;;;;;6303083;22;20019;-55
2022/11/09 10:37:47;;;;;;;20.88;3.70;;;;;;;;;;6303402;22;20051;-51
2022/11/09 10:40:37;;;;;;;28.75;4.70;;;;;;;;;;6147608;23;20022;-54
2022/11/09 10:43:12;;;;;;;29.00;4.32;;;;;;;;;;6147384;23;20049;-48
2022/11/09 10:45:56;;;;;;;21.65;3.83;;;;;;;;;;6262678;22;20026;-61
2022/11/09 10:48:32;;;;;;;31.23;4.28;;;;;;;;;;6302093;22;20106;-60
2022/11/09 10:51:26;;;;;;;22.60;3.67;;;;;;;;;;6301170;22;20069;-60
2022/11/09 10:54:13;;;;;;;22.48;4.90;;;;;;;;;;6300627;22;20046;-60
2022/11/09 10:56:48;;;;;;;32.30;4.00;;;;;;;;;;6300934;22;20023;-60
2022/11/09 10:59:36;;;;;;;30.75;4.22;;;;;;;;;;6301350;22;20054;-59
2022/11/09 11:02:25;;;;;;;30.35;5.00;;;;;;;;;;6299539;22;20034;-60
2022/11/09 11:05:12;;;;;;;33.33;4.85;;;;;;;;;;6300784;22;20464;-59
2022/11/09 11:07:46;;;;;;;22.95;3.90;;;;;;;;;;6301639;22;20021;-55
2022/11/09 11:10:22;;;;;;;35.97;5.72;;;;;;;;;;6302271;22;20033;-54
2022/11/09 11:13:01;;;;;;;24.90;4.45;;;;;;;;;;6301250;22;20464;-54
2022/11/09 11:15:31;;;;;;;29.13;5.25;;;;;;;;;;6302168;22;20064;-55
2022/11/09 11:18:13;;;;;;;33.38;4.32;;;;;;;;;;6302596;22;20019;-50
2022/11/09 11:20:40;;;;;;;27.63;4.60;;;;;;;;;;6302076;22;20098;-53
2022/11/09 11:23:22;;;;;;;22.40;4.10;;;;;;;;;;6300385;22;20023;-60
2022/11/09 11:25:53;;;;;;;18.95;4.25;;;;;;;;;;6302293;22;20023;-53
2022/11/09 11:28:33;;;;;;;28.30;4.78;;;;;;;;;;6302293;22;20019;-51
2022/11/09 11:31:00;;;;;;;21.05;3.95;;;;;;;;;;6300334;22;20030;-54
2022/11/09 11:33:35;;;;;;;36.00;5.03;;;;;;;;;;6300493;22;20027;-49
2022/11/09 11:36:14;;;;;;;19.45;4.38;;;;;;;;;;6301164;22;20046;-51
2022/11/09 11:38:53;;;;;;;22.25;4.78;;;;;;;;;;6300847;22;20380;-48
2022/11/09 11:41:20;;;;;;;35.45;5.10;;;;;;;;;;6301861;22;20019;-59
2022/11/09 11:44:03;;;;;;;26.63;4.53;;;;;;;;;;6299774;22;20101;-61
2022/11/09 11:46:47;;;;;;;32.75;5.38;;;;;;;;;;6301744;22;20020;-50
2022/11/09 11:49:14;;;;;;;22.60;4.63;;;;;;;;;;6301705;22;20106;-53
2022/11/09 11:51:52;;;;;;;18.27;4.75;;;;;;;;;;6299978;22;20027;-50
2022/11/09 11:54:26;;;;;;;22.83;4.25;;;;;;;;;;6301273;22;20046;-51
2022/11/09 11:57:05;;;;;;;22.83;4.75;;;;;;;;;;6299550;22;20042;-53
2022/11/09 11:59:41;;;;;;;27.35;4.70;;;;;;;;;;6300024;22;20094;-55
2022/11/09 12:02:18;;;;;;;34.42;4.50;;;;;;;;;;6301961;22;20111;-60
2022/11/09 12:04:53;;;;;;;33.28;5.07;;;;;;;;;;6301319;22;20050;-53
2022/11/09 12:07:46;;;;;;;21.23;4.68;;;;;;;;;;6301460;22;20094;-50
2022/11/09 12:10:17;;;;;;;25.38;5.47;;;;;;;;;;6301488;22;20030;-55
2022/11/09 12:13:06;;;;;;;26.33;5.07;;;;;;;;;;6299480;22;20033;-52
2022/11/09 12:15:34;;;;;;;30.85;4.97;;;;;;;;;;6301107;22;20528;-52
2022/11/09 12:18:14;;;;;;;24.67;4.78;;;;;;;;;;6300244;22;20023;-51
2022/11/09 12:20:54;;;;;;;30.35;4.95;;;;;;;;;;6299594;22;20424;-60
2022/11/09 12:23:34;;;;;;;20.77;4.47;;;;;;;;;;6299948;22;20093;-52
2022/11/09 12:26:32;;;;;;;25.55;5.05;;;;;;;;;;6300691;22;20460;-54
2022/11/09 12:29:02;;;;;;;26.02;4.90;;;;;;;;;;6298924;22;20139;-56
2022/11/09 12:31:43;;;;;;;25.45;5.13;;;;;;;;;;6300951;22;20475;-51
2022/11/09 12:34:13;;;;;;;23.55;4.63;;;;;;;;;;6301915;22;20753;-52
2022/11/09 12:36:50;;;;;;;22.00;4.65;;;;;;;;;;6300095;22;20042;-54
2022/11/09 12:39:22;;;;;;;31.88;5.97;;;;;;;;;;6301415;22;20022;-60
2022/11/09 12:42:05;;;;;;;24.10;5.47;;;;;;;;;;6299340;22;20029;-60
2022/11/09 12:44:42;;;;;;;27.52;5.00;;;;;;;;;;6300453;22;20046;-60
2022/11/09 12:47:19;;;;;;;25.90;4.85;;;;;;;;;;6300617;22;20400;-60
2022/11/09 12:49:46;;;;;;;26.02;5.30;;;;;;;;;;6300126;22;20338;-61
2022/11/09 12:52:25;;;;;;;36.22;5.70;;;;;;;;;;6300100;22;20356;-61
2022/11/09 12:54:53;;;;;;;31.42;6.50;;;;;;;;;;6299878;22;20019;-61
2022/11/09 12:57:28;;;;;;;27.75;5.35;;;;;;;;;;6300790;22;20105;-60
2022/11/09 12:59:57;;;;;;;26.48;5.43;;;;;;;;;;6300582;22;20027;-65
2022/11/09 13:02:35;;;;;;;26.98;5.40;;;;;;;;;;6301537;22;20024;-62
2022/11/09 13:05:30;;;;;;;27.65;5.60;;;;;;;;;;6300456;22;20405;-62
2022/11/09 13:08:01;;;;;;;27.95;5.07;;;;;;;;;;6301754;22;20106;-62
2022/11/09 13:10:37;;;;;;;28.23;5.35;;;;;;;;;;6300420;22;20102;-62
2022/11/09 13:13:07;;;;;;;24.92;4.28;;;;;;;;;;6299162;22;20023;-62
2022/11/09 13:15:34;;;;;;;39.88;5.57;;;;;;;;;;6300835;22;20356;-63
2022/11/09 13:18:24;;;;;;;30.50;4.95;;;;;;;;;;6300124;22;20019;-59
2022/11/09 13:20:52;;;;;;;24.92;4.40;;;;;;;;;;6299624;22;20020;-60
2022/11/09 13:23:34;;;;;;;29.92;4.63;;;;;;;;;;6300296;22;20019;-61
2022/11/09 13:26:28;;;;;;;29.60;4.65;;;;;;;;;;6302374;22;20030;-60
2022/11/09 13:29:14;;;;;;;28.02;4.15;;;;;;;;;;6300903;22;20019;-60
2022/11/09 13:32:07;;;;;;;23.17;4.40;;;;;;;;;;6302659;22;20097;-60
2022/11/09 13:34:43;;;;;;;26.30;4.35;;;;;;;;;;6251148;22;20029;-60
2022/11/09 13:37:29;;;;;;;27.33;4.82;;;;;;;;;;6275201;22;20058;-52
2022/11/09 13:40:21;;;;;;;24.67;4.35;;;;;;;;;;6302210;22;20019;-60
2022/11/09 13:42:56;;;;;;;20.35;3.97;;;;;;;;;;6301524;22;20106;-59
2022/11/09 13:45:37;;;;;;;20.08;4.72;;;;;;;;;;6277376;22;20019;-60
2022/11/09 13:48:05;;;;;;;32.25;4.78;;;;;;;;;;6302261;22;20027;-60
2022/11/09 13:50:39;;;;;;;31.35;4.32;;;;;;;;;;6302108;22;20120;-59
2022/11/09 13:53:26;;;;;;;25.83;5.18;;;;;;;;;;6300955;22;20041;-60
2022/11/09 13:56:12;;;;;;;27.45;4.05;;;;;;;;;;6301646;22;20019;-50
2022/11/09 13:58:40;;;;;;;21.33;3.95;;;;;;;;;;6302502;22;20026;-58
2022/11/09 14:01:33;;;;;;;28.35;4.60;;;;;;;;;;6303469;22;20022;-57
2022/11/09 14:04:18;;;;;;;20.73;4.25;;;;;;;;;;6301133;22;20019;-58
2022/11/09 14:07:02;;;;;;;22.63;4.40;;;;;;;;;;6301539;22;20372;-59
2022/11/09 14:09:45;;;;;;;28.90;4.97;;;;;;;;;;6303369;22;20030;-59
2022/11/09 14:12:19;;;;;;;27.27;4.22;;;;;;;;;;6301235;22;20033;-59
2022/11/09 14:14:46;;;;;;;26.35;4.60;;;;;;;;;;6301768;22;20401;-55
2022/11/09 14:17:25;;;;;;;30.15;5.05;;;;;;;;;;6302487;22;20026;-61
2022/11/09 14:19:58;;;;;;;23.38;4.88;;;;;;;;;;6302260;22;20103;-60
2022/11/09 14:22:45;;;;;;;29.50;4.88;;;;;;;;;;6301458;22;20034;-61
2022/11/09 14:25:16;;;;;;;21.83;4.20;;;;;;;;;;6302479;22;20026;-60
2022/11/09 14:27:58;;;;;;;28.08;4.78;;;;;;;;;;6301387;22;20019;-61
2022/11/09 14:30:30;;;;;;;28.00;4.63;;;;;;;;;;6303094;22;20107;-61
2022/11/09 14:33:19;;;;;;;35.85;5.07;;;;;;;;;;6301865;22;20050;-54
2022/11/09 14:35:46;;;;;;;24.23;4.50;;;;;;;;;;6302236;22;20019;-60
2022/11/09 14:38:28;;;;;;;28.35;4.80;;;;;;;;;;6302472;22;20019;-56
2022/11/09 14:40:55;;;;;;;26.10;5.30;;;;;;;;;;6301700;22;20106;-58
2022/11/09 14:43:40;;;;;;;32.63;4.72;;;;;;;;;;6302805;22;20065;-58
2022/11/09 14:46:13;;;;;;;34.25;4.80;;;;;;;;;;6302427;22;20066;-58
2022/11/09 14:48:58;;;;;;;32.83;5.60;;;;;;;;;;6276626;22;20016;-57
2022/11/09 14:51:37;;;;;;;23.73;4.30;;;;;;;;;;6303456;22;20356;-59
2022/11/09 14:54:12;;;;;;;26.90;4.75;;;;;;;;;;6301906;22;20061;-62
2022/11/09 14:56:41;;;;;;;32.97;5.03;;;;;;;;;;6302385;22;20499;-64
2022/11/09 14:59:16;;;;;;;27.42;4.50;;;;;;;;;;6302927;22;20055;-65
2022/11/09 15:02:04;;;;;;;30.95;5.28;;;;;;;;;;6301472;22;20019;-65
2022/11/09 15:05:00;;;;;;;28.05;4.90;;;;;;;;;;6301179;22;20051;-65
2022/11/09 15:07:30;;;;;;;22.83;4.40;;;;;;;;;;6300690;22;20023;-64